Time;durP1;ratioP1;P1;durP2;ratioP2;P2;SDS_P1;SDS_P2;PMS_P1;PMS_P2;Temp;Humidity;BMP_temperature;BMP_pressure;BME280_temperature;BME280_humidity;BME280_pressure;Samples;Min_cycle;Max_cycle;Signal;HPM_P1;HPM_P2
2023/11/29 00:01:24;;;;;;;2.30;2.10;;;;;;;16.39;38.98;97409.27;104949;1254;59808;-64
2023/11/29 00:03:51;;;;;;;;;;;;;;;16.45;38.96;97398.40;105342;1252;72143;-64
2023/11/29 00:06:19;;;;;;;;;;;;;;;16.44;39.48;97400.08;104855;1258;70241;-63
2023/11/29 05:50:12;;;;;;;1.90;1.80;;;;;;;16.84;37.12;96995.46;101279;1290;617844;-68
2023/11/29 05:52:39;;;;;;;;;;;;;;;16.84;37.07;96997.21;103670;1266;60775;-69
2023/11/29 05:55:06;;;;;;;1.90;1.80;;;;;;;16.94;36.87;96988.51;103792;1272;60012;-70
2023/11/29 05:57:34;;;;;;;3.80;1.70;;;;;;;16.92;36.89;96988.91;104095;1270;71097;-67
2023/11/29 06:00:10;;;;;;;1.60;1.50;;;;;;;16.97;36.77;96989.84;103884;1269;69614;-69
2023/11/29 06:02:59;;;;;;;2.60;2.10;;;;;;;16.83;36.78;96991.13;103952;1270;177531;-68
2023/11/29 06:05:29;;;;;;;2.20;2.00;;;;;;;16.73;36.93;96993.96;105607;1253;61269;-71
2023/11/29 06:07:56;;;;;;;;;;;;;;;16.74;37.02;96996.21;105282;1253;59953;-65
2023/11/29 06:10:23;;;;;;;2.40;2.00;;;;;;;16.75;37.00;96998.73;104728;1257;72059;-66
2023/11/29 06:12:50;;;;;;;3.30;2.30;;;;;;;16.72;37.11;96996.55;104757;1253;70140;-66
2023/11/29 06:15:18;;;;;;;3.20;2.00;;;;;;;16.71;37.10;97001.66;105184;1256;75703;-68
2023/11/29 06:17:45;;;;;;;;;;;;;;;16.82;36.96;96996.91;104761;1257;59747;-66
2023/11/29 06:20:13;;;;;;;2.20;2.00;;;;;;;16.81;37.04;96998.13;104963;1256;61503;-67
2023/11/29 06:22:40;;;;;;;3.20;2.90;;;;;;;16.80;36.99;96998.39;104827;1255;72148;-65
2023/11/29 06:25:08;;;;;;;3.80;2.70;;;;;;;16.83;36.88;97002.52;104913;1256;68490;-66
2023/11/29 06:27:35;;;;;;;2.70;2.50;;;;;;;16.92;36.69;96999.02;104573;1255;72976;-64
2023/11/29 06:30:03;;;;;;;4.40;3.00;;;;;;;16.93;36.68;96996.80;104866;1259;61115;-63
2023/11/29 06:32:31;;;;;;;;;;;;;;;16.98;36.67;97002.26;104564;1259;60467;-65
2023/11/29 06:34:58;;;;;;;3.60;3.40;;;;;;;16.92;36.76;97002.03;104697;1255;72785;-64
2023/11/29 06:37:24;;;;;;;3.60;3.30;;;;;;;16.83;36.88;97001.36;104988;1256;69787;-65
2023/11/29 06:39:51;;;;;;;4.90;4.50;;;;;;;16.78;36.95;97000.41;105252;1264;72851;-66
2023/11/29 06:42:18;;;;;;;4.20;3.90;;;;;;;16.76;37.06;96999.28;104788;1261;60759;-65
2023/11/29 06:44:45;;;;;;;4.50;4.10;;;;;;;16.83;37.10;96998.63;105119;1254;59973;-65
2023/11/29 06:47:13;;;;;;;4.10;3.80;;;;;;;16.85;37.08;97003.02;105370;1255;72882;-66
2023/11/29 06:49:40;;;;;;;;;;;;;;;16.87;37.00;97006.63;104728;1255;70222;-67
2023/11/29 06:52:08;;;;;;;20.90;13.20;;;;;;;16.86;37.13;97009.71;104846;1255;59837;-67
2023/11/29 06:54:36;;;;;;;20.50;13.10;;;;;;;16.79;37.14;97005.44;104935;1251;60994;-66
2023/11/29 06:57:03;;;;;;;17.40;12.60;;;;;;;16.68;37.22;97010.41;104927;1252;60352;-66
2023/11/29 06:59:31;;;;;;;14.60;10.50;;;;;;;16.65;37.36;97012.21;104347;1273;72960;-66
2023/11/29 07:01:57;;;;;;;22.20;14.70;;;;;;;16.57;37.52;97017.65;104703;1255;69673;-66
2023/11/29 07:04:27;;;;;;;20.90;14.40;;;;;;;16.54;37.60;97015.02;104556;1260;72469;-66
2023/11/29 07:06:55;;;;;;;17.90;12.40;;;;;;;16.49;37.71;97015.30;104872;1263;60323;-66
2023/11/29 07:09:22;;;;;;;;;;;;;;;16.52;37.74;97017.29;105874;1251;60054;-66
2023/11/29 07:11:49;;;;;;;7.70;5.60;;;;;;;16.66;37.75;97006.21;107474;1255;73427;-66
2023/11/29 07:14:15;;;;;;;6.80;5.60;;;;;;;16.58;37.89;96998.49;105545;1259;69892;-66
2023/11/29 07:16:42;;;;;;;6.80;5.80;;;;;;;16.60;37.91;97016.83;105140;1255;73271;-66
2023/11/29 07:19:10;;;;;;;9.00;7.20;;;;;;;16.64;37.97;97019.94;105023;1257;61826;-67
2023/11/29 07:21:36;;;;;;;6.80;5.10;;;;;;;16.72;38.02;97008.75;104856;1255;59949;-66
2023/11/29 07:24:04;;;;;;;8.30;6.60;;;;;;;16.83;37.84;97008.52;104423;1270;73210;-67
2023/11/29 07:26:32;;;;;;;9.90;7.50;;;;;;;16.84;37.85;97011.61;104713;1265;69237;-67
2023/11/29 07:28:59;;;;;;;8.00;6.40;;;;;;;16.88;37.90;97015.55;104454;1255;73517;-68
2023/11/29 07:31:28;;;;;;;7.60;6.80;;;;;;;17.08;37.50;97020.98;104679;1266;60880;-67
2023/11/29 07:33:56;;;;;;;5.30;4.80;;;;;;;16.97;37.68;97028.33;104961;1269;60375;-66
2023/11/29 07:36:23;;;;;;;4.70;4.30;;;;;;;16.93;37.84;97029.73;104605;1269;72452;-66
2023/11/29 07:38:50;;;;;;;4.00;3.70;;;;;;;16.88;38.06;97032.92;104448;1257;69651;-64
2023/11/29 07:41:20;;;;;;;3.80;3.50;;;;;;;16.96;38.14;97027.60;104351;1257;72973;-66
2023/11/29 07:43:47;;;;;;;2.30;2.10;;;;;;;16.85;38.36;97027.71;104751;1255;59762;-65
2023/11/29 07:46:14;;;;;;;2.10;2.00;;;;;;;16.80;38.64;97040.65;104283;1253;60070;-65
2023/11/29 07:48:41;;;;;;;1.50;1.40;;;;;;;16.78;38.83;97042.65;104457;1253;72762;-66
2023/11/29 07:51:08;;;;;;;1.30;1.30;;;;;;;16.79;38.77;97050.86;104912;1262;69669;-65
2023/11/29 07:53:35;;;;;;;2.00;1.90;;;;;;;16.90;38.69;97049.67;104979;1257;73150;-67
2023/11/29 07:56:02;;;;;;;2.30;2.10;;;;;;;16.99;38.71;97048.27;104750;1256;61025;-67
2023/11/29 07:58:29;;;;;;;2.60;2.40;;;;;;;16.93;38.80;97050.86;104628;1254;59863;-66
2023/11/29 08:01:03;;;;;;;4.40;3.30;;;;;;;16.92;38.88;97051.89;104730;1257;73742;-67
2023/11/29 08:03:30;;;;;;;4.10;3.80;;;;;;;16.87;39.12;97055.85;104447;1263;70268;-67
2023/11/29 08:05:57;;;;;;;4.70;4.10;;;;;;;16.75;39.27;97056.96;104627;1256;73127;-67
2023/11/29 08:08:24;;;;;;;5.40;4.50;;;;;;;16.69;39.31;97060.02;104868;1256;61641;-69
2023/11/29 08:10:51;;;;;;;4.20;3.80;;;;;;;16.71;39.31;97059.95;108419;1252;59854;-70
2023/11/29 08:13:18;;;;;;;4.10;3.70;;;;;;;16.58;39.54;97065.63;108419;1254;73129;-69
2023/11/29 08:15:45;;;;;;;3.60;2.20;;;;;;;16.61;39.49;97067.77;105720;1256;68237;-69
2023/11/29 08:18:13;;;;;;;1.60;1.50;;;;;;;16.66;39.29;97066.15;104680;1264;72192;-67
2023/11/29 08:20:40;;;;;;;;;;;;;;;16.46;39.55;97067.45;105419;1254;61606;-68
2023/11/29 08:23:06;;;;;;;1.50;1.40;;;;;;;16.32;39.83;97079.77;105091;1256;59656;-65
2023/11/29 08:25:34;;;;;;;1.70;1.60;;;;;;;16.21;39.97;97077.77;105268;1252;73590;-64
2023/11/29 08:29:28;;;;;;;1.80;1.70;;;;;;;15.07;43.52;97087.88;101932;1292;600676;-65
2023/11/29 08:31:56;;;;;;;2.60;1.60;;;;;;;16.44;39.84;97083.44;103653;1267;60611;-63
2023/11/29 08:34:25;;;;;;;2.10;2.00;;;;;;;16.48;39.34;97083.20;103581;1270;59811;-65
2023/11/29 08:36:52;;;;;;;3.40;2.30;;;;;;;16.28;39.52;97091.30;103787;1270;72718;-64
2023/11/29 08:39:23;;;;;;;2.80;2.50;;;;;;;16.20;39.52;97097.46;103895;1269;69621;-63
2023/11/29 08:41:50;;;;;;;3.40;3.10;;;;;;;16.31;39.28;97100.70;103915;1267;72903;-63
2023/11/29 08:44:18;;;;;;;3.40;3.10;;;;;;;16.02;39.53;97108.42;104027;1264;216243;-64
2023/11/29 08:46:46;;;;;;;3.20;2.90;;;;;;;15.95;39.61;97109.80;104300;1263;59798;-62
2023/11/29 08:49:20;;;;;;;3.40;3.10;;;;;;;15.84;39.56;97113.42;103834;1268;72591;-62
2023/11/29 08:51:47;;;;;;;3.80;3.50;;;;;;;15.89;39.43;97115.17;104177;1264;69004;-66
2023/11/29 08:54:16;;;;;;;4.40;4.00;;;;;;;16.08;38.95;97111.98;104029;1263;72928;-66
2023/11/29 08:56:44;;;;;;;;;;;;;;;16.00;38.99;97113.52;104703;1258;60596;-66
2023/11/29 08:59:13;;;;;;;3.80;3.50;;;;;;;15.78;39.31;97114.56;104675;1257;59893;-63
2023/11/29 09:01:40;;;;;;;3.80;3.40;;;;;;;15.79;39.21;97121.04;104663;1256;73078;-62
2023/11/29 09:04:08;;;;;;;;;;;;;;;15.84;38.97;97123.90;104352;1258;70009;-63
2023/11/29 09:06:37;;;;;;;4.20;3.80;;;;;;;15.74;39.11;97121.01;104580;1258;74311;-62
2023/11/29 09:09:04;;;;;;;4.50;4.10;;;;;;;15.68;39.26;97129.02;104532;1256;61638;-64
2023/11/29 09:11:32;;;;;;;;;;;;;;;15.67;39.32;97128.61;104531;1257;60145;-61
2023/11/29 09:14:00;;;;;;;5.10;4.70;;;;;;;15.61;39.29;97130.50;104568;1274;72863;-67
2023/11/29 09:16:28;;;;;;;4.50;4.10;;;;;;;15.38;39.44;97135.61;104148;1272;69576;-68
2023/11/29 09:18:56;;;;;;;;;;;;;;;15.33;39.45;97142.13;104772;1256;71384;-67
2023/11/29 09:21:25;;;;;;;5.70;4.80;;;;;;;15.32;39.46;97138.23;104813;1258;60337;-68
2023/11/29 09:23:53;;;;;;;5.20;4.70;;;;;;;15.31;39.51;97146.19;105044;1253;60477;-64
2023/11/29 09:26:21;;;;;;;4.80;4.40;;;;;;;15.32;39.18;97150.39;104661;1258;72838;-66
2023/11/29 09:28:49;;;;;;;4.70;4.30;;;;;;;15.33;39.10;97156.10;105350;1254;72516;-66
2023/11/29 09:31:17;;;;;;;;;;;;;;;15.31;39.28;97161.09;104823;1253;72921;-66
2023/11/29 09:33:45;;;;;;;5.00;4.60;;;;;;;15.30;40.18;97164.52;104664;1255;65098;-66
2023/11/29 09:36:15;;;;;;;5.00;4.60;;;;;;;15.04;40.88;97178.45;105120;1253;60434;-65
2023/11/29 09:38:43;;;;;;;5.50;5.00;;;;;;;15.03;39.97;97178.35;105005;1253;74995;-66
2023/11/29 09:41:13;;;;;;;5.10;4.60;;;;;;;14.89;40.43;97181.46;104367;1257;74019;-65
2023/11/29 09:43:41;;;;;;;7.00;5.30;;;;;;;14.81;39.31;97179.08;104435;1257;74231;-65
2023/11/29 09:46:09;;;;;;;;;;;;;;;14.77;39.54;97178.11;104342;1256;61086;-64
2023/11/29 09:48:37;;;;;;;6.10;5.50;;;;;;;14.75;39.40;97176.19;104667;1255;59754;-65
2023/11/29 09:51:05;;;;;;;6.00;5.30;;;;;;;14.67;38.76;97175.90;104743;1253;74900;-65
2023/11/29 09:53:33;;;;;;;6.90;6.20;;;;;;;14.77;38.69;97179.86;104439;1253;69438;-66
2023/11/29 09:56:03;;;;;;;6.50;5.90;;;;;;;14.65;38.91;97183.49;104807;1255;74635;-64
2023/11/29 09:58:31;;;;;;;7.40;6.80;;;;;;;14.63;39.05;97192.00;104976;1254;63594;-65
2023/11/29 10:00:59;;;;;;;6.70;6.10;;;;;;;14.61;39.96;97203.34;104564;1256;59788;-64
2023/11/29 10:03:27;;;;;;;;;;;;;;;14.63;39.16;97206.67;104727;1253;73581;-66
2023/11/29 10:05:55;;;;;;;6.80;6.20;;;;;;;14.60;38.68;97214.52;104434;1255;69700;-65
2023/11/29 10:08:23;;;;;;;;;;;;;;;14.55;38.51;97216.36;104539;1262;72937;-65
2023/11/29 20:45:34;;;;;;;7.00;4.60;;;;;;;10.42;34.97;98480.22;101640;1296;601452;-62
2023/11/29 20:48:02;;;;;;;7.80;5.30;;;;;;;12.45;31.76;98472.31;103629;1269;60028;-61
2023/11/29 20:50:30;;;;;;;6.30;4.40;;;;;;;12.69;31.33;98472.95;103851;1272;59755;-63
2023/11/29 20:52:58;;;;;;;;;;;;;;;12.25;31.98;98483.73;103618;1269;72266;-61
2023/11/29 20:55:41;;;;;;;6.50;4.80;;;;;;;12.29;31.96;98487.65;103722;1270;69013;-64
2023/11/29 20:58:08;;;;;;;5.70;4.40;;;;;;;12.20;31.86;98493.05;103854;1273;252609;-62
2023/11/29 21:00:36;;;;;;;7.30;4.80;;;;;;;12.08;32.16;98496.63;104477;1278;60605;-62
2023/11/29 21:03:03;;;;;;;;;;;;;;;11.95;32.16;98501.73;104159;1263;60106;-62
2023/11/29 21:05:32;;;;;;;8.70;5.20;;;;;;;11.69;32.20;98509.16;104163;1269;72557;-61
2023/11/29 21:08:01;;;;;;;5.80;4.30;;;;;;;11.60;32.61;98504.83;104013;1264;69185;-62
2023/11/29 21:10:28;;;;;;;5.70;4.80;;;;;;;12.02;32.17;98503.01;103937;1264;72661;-62
2023/11/29 21:12:59;;;;;;;;;;;;;;;12.21;31.79;98503.31;104224;1279;60717;-61
2023/11/29 21:15:27;;;;;;;7.40;5.00;;;;;;;12.36;31.53;98501.95;103905;1269;59444;-61
2023/11/29 21:17:56;;;;;;;7.40;4.70;;;;;;;12.27;31.48;98504.67;104275;1269;72912;-61
2023/11/29 21:20:26;;;;;;;5.50;4.20;;;;;;;11.95;31.65;98508.54;104172;1269;70192;-61
2023/11/29 21:22:53;;;;;;;6.30;4.40;;;;;;;12.13;31.64;98507.39;104163;1264;73495;-61
2023/11/29 21:25:21;;;;;;;5.40;3.60;;;;;;;12.08;31.42;98510.52;104055;1277;61588;-61
2023/11/29 21:27:49;;;;;;;;;;;;;;;11.97;31.55;98515.66;104106;1269;59878;-60
2023/11/29 21:30:17;;;;;;;7.20;4.90;;;;;;;12.09;31.69;98518.53;107588;1261;73297;-60
2023/11/29 21:32:45;;;;;;;6.00;4.10;;;;;;;12.06;31.53;98527.72;107422;1260;68653;-61
2023/11/29 21:35:12;;;;;;;7.20;4.50;;;;;;;12.10;31.66;98527.80;107453;1264;72528;-61
2023/11/29 21:37:40;;;;;;;7.00;4.20;;;;;;;12.15;31.62;98535.19;107457;1261;61619;-60
2023/11/29 21:40:08;;;;;;;;;;;;;;;12.34;31.44;98532.36;107458;1260;60104;-61
2023/11/29 21:42:36;;;;;;;5.80;4.00;;;;;;;12.53;31.06;98536.65;107443;1262;73770;-60
2023/11/29 21:45:04;;;;;;;;;;;;;;;12.50;31.08;98545.85;107452;1260;69577;-60
2023/11/29 21:47:31;;;;;;;7.50;4.50;;;;;;;12.19;31.02;98549.28;107946;1257;72550;-61
2023/11/29 21:49:59;;;;;;;6.60;4.10;;;;;;;12.14;31.20;98551.77;107889;1255;60781;-61
2023/11/29 21:52:27;;;;;;;7.30;5.00;;;;;;;11.98;31.25;98559.84;108000;1255;60055;-61
2023/11/29 21:54:55;;;;;;;;;;;;;;;12.00;31.21;98567.77;108011;1256;72823;-60
2023/11/29 21:57:22;;;;;;;;;;;;;;;11.79;31.38;98567.23;108019;1257;69224;-60
2023/11/29 21:59:50;;;;;;;6.10;3.50;;;;;;;11.60;31.42;98579.29;107865;1257;73133;-60
2023/11/29 22:02:18;;;;;;;;;;;;;;;11.47;31.57;98580.83;107863;1256;58908;-60
2023/11/29 22:04:46;;;;;;;6.10;3.80;;;;;;;11.40;31.66;98582.84;107867;1257;59602;-64
2023/11/29 22:07:13;;;;;;;;;;;;;;;11.47;31.74;98581.52;107822;1257;72933;-60
2023/11/29 22:09:41;;;;;;;;;;;;;;;11.39;31.60;98587.42;107900;1257;70450;-60
2023/11/29 22:12:09;;;;;;;5.40;4.00;;;;;;;11.58;31.54;98588.55;107856;1257;72703;-61
2023/11/29 22:14:40;;;;;;;7.90;4.50;;;;;;;11.61;31.34;98593.09;107946;1257;59268;-61
2023/11/29 22:17:08;;;;;;;6.10;4.10;;;;;;;11.49;31.72;98593.66;108005;1257;60655;-60
2023/11/29 22:19:36;;;;;;;8.00;4.50;;;;;;;11.79;32.04;98584.20;107763;1257;72811;-60
2023/11/29 22:22:04;;;;;;;8.40;5.10;;;;;;;12.20;30.74;98594.04;107884;1256;70296;-60
2023/11/29 22:24:31;;;;;;;6.40;4.70;;;;;;;11.76;30.86;98594.75;107843;1257;72457;-59
2023/11/29 22:26:59;;;;;;;10.70;4.70;;;;;;;11.76;31.01;98601.93;107774;1257;61611;-60
2023/11/29 22:29:27;;;;;;;7.10;4.80;;;;;;;11.50;30.86;98606.05;107850;1257;58718;-61
2023/11/29 22:31:55;;;;;;;6.40;4.60;;;;;;;11.32;31.27;98610.66;107972;1257;72924;-60
2023/11/29 22:34:23;;;;;;;7.10;4.70;;;;;;;11.63;30.86;98607.55;107827;1257;69065;-60
2023/11/29 22:36:50;;;;;;;7.90;5.40;;;;;;;11.64;30.74;98607.83;107878;1256;72346;-60
2023/11/29 22:39:18;;;;;;;7.50;5.60;;;;;;;11.60;30.64;98605.63;107903;1256;59858;-60
2023/11/29 22:41:45;;;;;;;;;;;;;;;11.74;30.35;98613.48;107972;1256;60295;-60
2023/11/29 22:44:13;;;;;;;8.00;5.70;;;;;;;11.70;30.51;98620.61;107933;1256;73251;-60
2023/11/29 22:46:41;;;;;;;7.30;5.10;;;;;;;11.73;30.51;98625.84;107972;1257;69017;-60
2023/11/29 22:49:09;;;;;;;7.80;6.00;;;;;;;11.66;30.55;98621.89;107842;1257;72359;-60
2023/11/29 22:51:36;;;;;;;10.60;6.00;;;;;;;11.83;30.43;98628.73;107846;1257;59883;-60
2023/11/29 22:54:04;;;;;;;9.70;6.20;;;;;;;11.67;30.52;98637.31;108094;1255;59857;-59
2023/11/29 22:56:36;;;;;;;8.80;6.40;;;;;;;11.58;30.47;98639.94;107936;1257;72921;-60
2023/11/29 22:59:05;;;;;;;9.00;5.80;;;;;;;11.84;30.38;98639.38;107925;1255;69293;-60
2023/11/29 23:01:33;;;;;;;10.30;6.60;;;;;;;11.36;30.58;98644.45;107857;1257;72397;-61
2023/11/29 23:04:03;;;;;;;9.10;6.90;;;;;;;11.22;30.90;98652.34;107840;1257;59366;-60
2023/11/29 23:06:32;;;;;;;11.80;6.80;;;;;;;11.13;31.02;98652.23;107716;1257;59707;-59
2023/11/29 23:08:59;;;;;;;;;;;;;;;10.95;30.95;98653.45;107956;1256;73148;-59
2023/11/29 23:11:27;;;;;;;9.50;6.30;;;;;;;11.05;31.06;98657.42;107952;1256;69187;-59
2023/11/29 23:13:55;;;;;;;12.20;7.30;;;;;;;11.00;31.06;98664.40;108015;1257;72726;-59
2023/11/29 23:16:22;;;;;;;;;;;;;;;11.30;30.60;98666.80;107840;1257;59637;-59
2023/11/29 23:18:50;;;;;;;10.10;7.00;;;;;;;11.29;30.57;98667.89;107765;1256;60413;-59
2023/11/29 23:21:18;;;;;;;10.70;7.40;;;;;;;10.98;30.83;98674.87;107781;1257;72945;-58
2023/11/29 23:23:46;;;;;;;;;;;;;;;10.64;31.24;98675.61;107798;1257;71965;-59
2023/11/29 23:26:14;;;;;;;11.10;6.60;;;;;;;10.74;31.09;98635.83;107844;1256;73423;-60
2023/11/29 23:28:42;;;;;;;9.80;7.10;;;;;;;10.97;30.77;98637.39;107772;1256;59140;-59
2023/11/29 23:31:10;;;;;;;11.90;7.00;;;;;;;10.86;30.82;98638.95;107747;1256;60300;-60
2023/11/29 23:33:37;;;;;;;;;;;;;;;10.92;30.83;98649.27;107866;1256;73265;-59
2023/11/29 23:36:06;;;;;;;11.20;6.80;;;;;;;10.84;30.74;98654.11;108162;1256;69457;-59
2023/11/29 23:38:33;;;;;;;11.80;7.10;;;;;;;10.78;30.89;98659.17;107867;1256;71283;-59
2023/11/29 23:41:01;;;;;;;11.70;7.20;;;;;;;10.84;30.85;98665.35;107797;1257;61781;-60
2023/11/29 23:43:29;;;;;;;;;;;;;;;11.25;30.16;98671.64;107825;1255;60648;-60
2023/11/29 23:45:57;;;;;;;10.60;6.70;;;;;;;11.04;30.23;98674.15;107823;1256;73192;-60
2023/11/29 23:48:25;;;;;;;11.40;8.00;;;;;;;10.63;30.84;98681.98;107815;1257;70057;-59
2023/11/29 23:50:53;;;;;;;11.70;7.60;;;;;;;10.66;30.65;98684.77;107853;1257;72446;-60
2023/11/29 23:53:21;;;;;;;13.20;8.60;;;;;;;10.88;30.48;98686.82;107812;1257;60758;-60
2023/11/29 23:55:48;;;;;;;;;;;;;;;10.82;30.32;98693.00;107872;1257;59724;-60
2023/11/29 23:58:16;;;;;;;11.70;7.80;;;;;;;10.64;30.39;98700.35;107870;1257;72870;-59
